Time;durP1;ratioP1;P1;durP2;ratioP2;P2;SDS_P1;SDS_P2;PMS_P1;PMS_P2;Temp;Humidity;BMP_temperature;BMP_pressure;BME280_temperature;BME280_humidity;BME280_pressure;Samples;Min_cycle;Max_cycle;Signal;HPM_P1;HPM_P2
2021/12/21 00:00:56;;;;;;;;;;;;;;;;;;5053059;28;1380;-86
2021/12/21 00:03:21;;;;;;;;;;;;;;;;;;5052605;28;1731;-86
2021/12/21 00:05:46;;;;;;;;;;;;;;;;;;5052751;28;1313;-86
2021/12/21 00:08:13;;;;;;;;;;;;;;;;;;5053865;28;1823;-86
2021/12/21 00:10:38;;;;;;;;;;;;;;;;;;5052442;28;1890;-86
2021/12/21 00:13:22;;;;;;;;;;;;;;;;;;5052721;28;1753;-86
2021/12/21 00:18:27;;;;;;;;;;;;;;;;;;5053866;28;1661;-86
2021/12/21 00:23:32;;;;;;;;;;;;;;;;;;5053965;28;1796;-86
2021/12/21 00:25:58;;;;;;;;;;;;;;;;;;5054154;28;1542;-86
2021/12/21 00:28:24;;;;;;;;;;;;;;;;;;5027720;22;3780;-85
2021/12/21 00:30:49;;;;;;;;;;;;;;;;;;5003156;28;1977;-83
2021/12/21 00:33:14;;;;;;;;;;;;;;;;;;5013159;28;1679;-85
2021/12/21 00:35:39;;;;;;;;;;;;;;;;;;5016357;28;1595;-85
2021/12/21 00:38:05;;;;;;;;;;;;;;;;;;5016029;28;1539;-84
2021/12/21 00:40:30;;;;;;;;;;;;;;;;;;5019028;28;1762;-84
2021/12/21 00:42:55;;;;;;;;;;;;;;;;;;5003143;28;1643;-85
2021/12/21 00:45:20;;;;;;;;;;;;;;;;;;5016219;28;1186;-84
2021/12/21 00:47:48;;;;;;;;;;;;;;;;;;5015907;28;1506;-84
2021/12/21 00:50:16;;;;;;;;;;;;;;;;;;5015746;28;1890;-84
2021/12/21 00:52:42;;;;;;;;;;;;;;;;;;5017693;28;1895;-85
2021/12/21 00:55:07;;;;;;;;;;;;;;;;;;5018311;28;1246;-84
2021/12/21 00:57:32;;;;;;;;;;;;;;;;;;5020329;28;1797;-83
2021/12/21 00:59:57;;;;;;;;;;;;;;;;;;5019741;28;1829;-84
2021/12/21 01:02:22;;;;;;;;;;;;;;;;;;5019335;28;1694;-85
2021/12/21 01:04:49;;;;;;;;;;;;;;;;;;5019236;28;1181;-84
2021/12/21 01:10:06;;;;;;;;;;;;;;;;;;5020331;28;1947;-84
2021/12/21 01:12:41;;;;;;;;;;;;;;;;;;5019381;28;1817;-84
2021/12/21 01:15:28;;;;;;;;;;;;;;;;;;5019143;28;1777;-84
2021/12/21 01:18:03;;;;;;;;;;;;;;;;;;5019862;28;1626;-85
2021/12/21 01:25:47;;;;;;;;;;;;;;;;;;5020689;28;1777;-85
2021/12/21 01:36:00;;;;;;;;;;;;;;;;;;5019939;28;852;-85
2021/12/21 01:38:36;;;;;;;;;;;;;;;;;;5017526;28;1788;-84
2021/12/21 01:41:09;;;;;;;;;;;;;;;;;;5017786;28;1690;-85
2021/12/21 01:43:48;;;;;;;;;;;;;;;;;;5018554;28;1241;-83
2021/12/21 01:51:41;;;;;;;;;;;;;;;;;;5029464;28;1607;-84
2021/12/21 01:54:06;;;;;;;;;;;;;;;;;;5018922;28;1697;-85
2021/12/21 01:56:32;;;;;;;;;;;;;;;;;;5019065;28;1659;-87
2021/12/21 01:58:57;;;;;;;;;;;;;;;;;;5018857;28;1432;-85
2021/12/21 02:01:22;;;;;;;;;;;;;;;;;;5003001;28;1173;-85
2021/12/21 02:03:47;;;;;;;;;;;;;;;;;;5002538;28;1188;-86
2021/12/21 02:06:12;;;;;;;;;;;;;;;;;;5019913;28;888;-85
2021/12/21 02:08:37;;;;;;;;;;;;;;;;;;5019781;28;1515;-84
2021/12/21 02:11:04;;;;;;;;;;;;;;;;;;5019324;28;1969;-84
2021/12/21 02:13:32;;;;;;;;;;;;;;;;;;5019810;28;1356;-85
2021/12/21 02:15:57;;;;;;;;;;;;;;;;;;5010089;28;1604;-84
2021/12/21 02:18:36;;;;;;;;;;;;;;;;;;5019831;28;1702;-85
2021/12/21 02:21:17;;;;;;;;;;;;;;;;;;5000976;28;1189;-84
2021/12/21 02:23:42;;;;;;;;;;;;;;;;;;5013169;28;1616;-84
2021/12/21 02:26:20;;;;;;;;;;;;;;;;;;5007402;28;1842;-85
2021/12/21 02:28:58;;;;;;;;;;;;;;;;;;5023272;28;1479;-82
2021/12/21 02:31:24;;;;;;;;;;;;;;;;;;5021211;28;1627;-83
2021/12/21 02:33:49;;;;;;;;;;;;;;;;;;5018687;28;1327;-85
2021/12/21 02:36:14;;;;;;;;;;;;;;;;;;5021140;28;1678;-83
2021/12/21 02:38:39;;;;;;;;;;;;;;;;;;5016643;28;1511;-85
2021/12/21 02:41:04;;;;;;;;;;;;;;;;;;5018751;28;1663;-84
2021/12/21 02:43:29;;;;;;;;;;;;;;;;;;5021207;28;1354;-85
2021/12/21 02:45:55;;;;;;;;;;;;;;;;;;5001942;28;1615;-83
2021/12/21 02:48:20;;;;;;;;;;;;;;;;;;5019432;28;1467;-85
2021/12/21 02:50:45;;;;;;;;;;;;;;;;;;5012765;28;1702;-84
2021/12/21 02:53:10;;;;;;;;;;;;;;;;;;5019132;28;1599;-84
2021/12/21 02:55:35;;;;;;;;;;;;;;;;;;5019171;28;1194;-84
2021/12/21 02:58:00;;;;;;;;;;;;;;;;;;5018556;28;1619;-83
2021/12/21 03:00:25;;;;;;;;;;;;;;;;;;5018399;28;1891;-83
2021/12/21 03:02:50;;;;;;;;;;;;;;;;;;5018901;28;1273;-84
2021/12/21 03:05:15;;;;;;;;;;;;;;;;;;5021034;28;992;-84
2021/12/21 03:10:27;;;;;;;;;;;;;;;;;;5020853;28;1622;-85
2021/12/21 03:15:17;;;;;;;;;;;;;;;;;;5033624;28;1658;-85
2021/12/21 03:17:42;;;;;;;;;;;;;;;;;;5020300;28;1671;-85
2021/12/21 03:20:07;;;;;;;;;;;;;;;;;;5020335;28;1957;-85
2021/12/21 03:22:32;;;;;;;;;;;;;;;;;;5019746;28;1733;-85
2021/12/21 03:24:57;;;;;;;;;;;;;;;;;;5021301;28;1301;-83
2021/12/21 03:27:22;;;;;;;;;;;;;;;;;;5018344;28;1718;-85
2021/12/21 03:29:48;;;;;;;;;;;;;;;;;;5009157;28;1683;-84
2021/12/21 03:32:13;;;;;;;;;;;;;;;;;;5019687;28;1267;-85
2021/12/21 03:34:38;;;;;;;;;;;;;;;;;;5019568;28;1710;-84
2021/12/21 03:37:10;;;;;;;;;;;;;;;;;;5008490;28;1634;-84
2021/12/21 03:39:35;;;;;;;;;;;;;;;;;;5016980;28;1882;-85
2021/12/21 03:42:00;;;;;;;;;;;;;;;;;;5016154;28;1267;-84
2021/12/21 03:44:26;;;;;;;;;;;;;;;;;;5016106;28;1240;-84
2021/12/21 03:46:54;;;;;;;;;;;;;;;;;;5014286;28;1632;-85
2021/12/21 03:51:53;;;;;;;;;;;;;;;;;;5030174;28;1630;-84
2021/12/21 03:54:18;;;;;;;;;;;;;;;;;;5016162;28;1229;-83
2021/12/21 03:56:47;;;;;;;;;;;;;;;;;;5015284;28;1307;-88
2021/12/21 03:59:12;;;;;;;;;;;;;;;;;;5016490;28;1957;-86
2021/12/21 04:01:37;;;;;;;;;;;;;;;;;;5016329;28;1707;-85
2021/12/21 04:04:03;;;;;;;;;;;;;;;;;;5018071;28;1250;-84
2021/12/21 04:06:28;;;;;;;;;;;;;;;;;;5017329;28;1662;-84
2021/12/21 04:08:53;;;;;;;;;;;;;;;;;;5017224;28;1440;-84
2021/12/21 04:11:18;;;;;;;;;;;;;;;;;;5006374;28;1682;-85
2021/12/21 04:13:43;;;;;;;;;;;;;;;;;;5021751;28;1259;-85
2021/12/21 04:16:08;;;;;;;;;;;;;;;;;;5020247;28;1229;-85
2021/12/21 04:18:39;;;;;;;;;;;;;;;;;;5021157;28;1318;-85
2021/12/21 04:21:04;;;;;;;;;;;;;;;;;;5039813;28;1953;-85
2021/12/21 04:23:29;;;;;;;;;;;;;;;;;;5023173;28;1674;-85
2021/12/21 04:25:54;;;;;;;;;;;;;;;;;;5010542;28;1666;-85
2021/12/21 04:28:19;;;;;;;;;;;;;;;;;;5016306;28;1663;-85
2021/12/21 04:30:44;;;;;;;;;;;;;;;;;;5023651;28;1719;-85
2021/12/21 04:33:09;;;;;;;;;;;;;;;;;;5021028;28;1195;-84
2021/12/21 04:35:34;;;;;;;;;;;;;;;;;;5020120;28;1306;-86
2021/12/21 04:38:12;;;;;;;;;;;;;;;;;;5020768;28;1526;-84
2021/12/21 04:40:41;;;;;;;;;;;;;;;;;;5009832;28;1971;-83
2021/12/21 04:43:06;;;;;;;;;;;;;;;;;;5004851;28;1691;-83
2021/12/21 04:45:31;;;;;;;;;;;;;;;;;;5019379;28;1209;-85
2021/12/21 04:47:56;;;;;;;;;;;;;;;;;;5019828;28;1380;-85
2021/12/21 04:50:21;;;;;;;;;;;;;;;;;;5014333;28;1472;-85
2021/12/21 04:52:46;;;;;;;;;;;;;;;;;;5019632;28;1205;-85
2021/12/21 04:55:12;;;;;;;;;;;;;;;;;;5021587;28;1654;-85
2021/12/21 04:57:37;;;;;;;;;;;;;;;;;;5016875;28;1659;-86
2021/12/21 05:00:02;;;;;;;;;;;;;;;;;;5020334;28;1874;-85
2021/12/21 05:02:27;;;;;;;;;;;;;;;;;;5020010;28;1742;-85
2021/12/21 05:04:52;;;;;;;;;;;;;;;;;;5019926;28;1379;-85
2021/12/21 05:07:22;;;;;;;;;;;;;;;;;;5020433;28;1386;-86
2021/12/21 05:09:55;;;;;;;;;;;;;;;;;;5020059;28;1646;-84
2021/12/21 05:12:20;;;;;;;;;;;;;;;;;;5023682;28;1202;-85
2021/12/21 05:14:45;;;;;;;;;;;;;;;;;;5017816;28;1288;-86
2021/12/21 05:17:10;;;;;;;;;;;;;;;;;;5015869;28;1592;-84
2021/12/21 05:19:35;;;;;;;;;;;;;;;;;;5020015;28;1898;-85
2021/12/21 05:22:00;;;;;;;;;;;;;;;;;;5019323;28;1184;-83
2021/12/21 05:24:25;;;;;;;;;;;;;;;;;;5020885;28;1797;-84
2021/12/21 05:26:50;;;;;;;;;;;;;;;;;;5022730;28;1303;-84
2021/12/21 05:29:15;;;;;;;;;;;;;;;;;;5022847;28;1164;-85
2021/12/21 05:31:41;;;;;;;;;;;;;;;;;;5030258;28;1642;-85
2021/12/21 05:34:06;;;;;;;;;;;;;;;;;;5018771;28;1210;-85
2021/12/21 05:36:31;;;;;;;;;;;;;;;;;;5020904;28;897;-85
2021/12/21 05:39:01;;;;;;;;;;;;;;;;;;5019401;28;1946;-86
2021/12/21 05:41:39;;;;;;;;;;;;;;;;;;5005845;28;1560;-86
2021/12/21 05:44:04;;;;;;;;;;;;;;;;;;5022587;28;1241;-83
2021/12/21 05:46:29;;;;;;;;;;;;;;;;;;5039823;28;1647;-83
2021/12/21 05:48:55;;;;;;;;;;;;;;;;;;5009848;28;1372;-84
2021/12/21 05:51:20;;;;;;;;;;;;;;;;;;5003717;28;1335;-83
2021/12/21 05:53:45;;;;;;;;;;;;;;;;;;5003674;28;1631;-84
2021/12/21 05:56:10;;;;;;;;;;;;;;;;;;5022345;28;1004;-84
2021/12/21 05:58:35;;;;;;;;;;;;;;;;;;5005541;28;1487;-84
2021/12/21 06:01:00;;;;;;;;;;;;;;;;;;5019083;28;1957;-83
2021/12/21 06:03:25;;;;;;;;;;;;;;;;;;5017632;28;1386;-84
2021/12/21 06:05:51;;;;;;;;;;;;;;;;;;5017638;28;1404;-84
2021/12/21 06:08:19;;;;;;;;;;;;;;;;;;5018254;28;1419;-84
2021/12/21 06:10:46;;;;;;;;;;;;;;;;;;5029399;28;1634;-84
2021/12/21 06:13:26;;;;;;;;;;;;;;;;;;5016574;28;1647;-85
2021/12/21 06:16:09;;;;;;;;;;;;;;;;;;5019779;28;1607;-84
2021/12/21 06:26:57;;;;;;;;;;;;;;;;;;4938115;28;1219;-84
2021/12/21 06:29:22;;;;;;;;;;;;;;;;;;5022392;28;1301;-84
2021/12/21 06:31:48;;;;;;;;;;;;;;;;;;5017819;28;1220;-83
2021/12/21 06:34:13;;;;;;;;;;;;;;;;;;5018733;28;872;-84
2021/12/21 06:36:38;;;;;;;;;;;;;;;;;;5017546;28;845;-84
2021/12/21 06:39:05;;;;;;;;;;;;;;;;;;5016694;28;1901;-84
2021/12/21 06:41:30;;;;;;;;;;;;;;;;;;5017027;28;1378;-84
2021/12/21 06:43:55;;;;;;;;;;;;;;;;;;5016360;28;1260;-84
2021/12/21 06:51:44;;;;;;;;;;;;;;;;;;5017503;28;616;-84
2021/12/21 06:54:09;;;;;;;;;;;;;;;;;;5016485;28;1142;-83
2021/12/21 06:56:34;;;;;;;;;;;;;;;;;;5016246;28;1306;-83
2021/12/21 06:58:59;;;;;;;;;;;;;;;;;;5014997;28;1966;-86
2021/12/21 07:01:26;;;;;;;;;;;;;;;;;;5015864;28;1381;-86
2021/12/21 07:03:51;;;;;;;;;;;;;;;;;;5014917;28;1419;-85
2021/12/21 07:06:18;;;;;;;;;;;;;;;;;;5015147;28;1383;-86
2021/12/21 07:08:47;;;;;;;;;;;;;;;;;;5016493;28;1166;-86
2021/12/21 07:11:30;;;;;;;;;;;;;;;;;;5015412;28;1245;-85
2021/12/21 07:19:24;;;;;;;;;;;;;;;;;;5016685;28;1950;-85
2021/12/21 07:21:49;;;;;;;;;;;;;;;;;;5016023;28;1237;-86
2021/12/21 07:24:14;;;;;;;;;;;;;;;;;;5016641;28;1337;-87
2021/12/21 07:26:39;;;;;;;;;;;;;;;;;;5016475;28;1344;-85
2021/12/21 07:29:04;;;;;;;;;;;;;;;;;;5015250;28;1364;-86
2021/12/21 07:31:29;;;;;;;;;;;;;;;;;;5015352;28;1324;-85
2021/12/21 07:33:54;;;;;;;;;;;;;;;;;;5015572;28;1426;-86
2021/12/21 07:36:19;;;;;;;;;;;;;;;;;;5017010;28;1604;-85
2021/12/21 07:38:44;;;;;;;;;;;;;;;;;;5016635;28;1353;-85
2021/12/21 07:41:09;;;;;;;;;;;;;;;;;;5016654;28;1955;-84
2021/12/21 07:43:34;;;;;;;;;;;;;;;;;;5017243;28;1210;-84
2021/12/21 07:45:59;;;;;;;;;;;;;;;;;;5018760;28;822;-85
2021/12/21 07:48:24;;;;;;;;;;;;;;;;;;5016696;28;1321;-85
2021/12/21 07:50:50;;;;;;;;;;;;;;;;;;5018851;28;1240;-85
2021/12/21 07:53:15;;;;;;;;;;;;;;;;;;5017321;28;1302;-85
2021/12/21 07:55:40;;;;;;;;;;;;;;;;;;5017685;28;1248;-85
2021/12/21 07:58:06;;;;;;;;;;;;;;;;;;5017671;28;1276;-85
2021/12/21 08:00:31;;;;;;;;;;;;;;;;;;5018106;28;1886;-85
2021/12/21 08:02:57;;;;;;;;;;;;;;;;;;5018666;28;1165;-84
2021/12/21 08:05:22;;;;;;;;;;;;;;;;;;5018147;28;1240;-83
2021/12/21 08:07:52;;;;;;;;;;;;;;;;;;5020647;28;1282;-85
2021/12/21 08:10:30;;;;;;;;;;;;;;;;;;5048355;23;2057;-88
2021/12/21 08:12:55;;;;;;;;;;;;;;;;;;5038028;28;1259;-88
2021/12/21 08:15:20;;;;;;;;;;;;;;;;;;5048297;28;1254;-85
2021/12/21 08:17:45;;;;;;;;;;;;;;;;;;5048410;28;1156;-88
2021/12/21 08:20:10;;;;;;;;;;;;;;;;;;4996740;28;1985;-88
2021/12/21 08:22:35;;;;;;;;;;;;;;;;;;4992370;28;1220;-88
2021/12/21 08:25:00;;;;;;;;;;;;;;;;;;4992681;28;1032;-88
2021/12/21 08:27:26;;;;;;;;;;;;;;;;;;4992520;28;1121;-88
2021/12/21 08:29:51;;;;;;;;;;;;;;;;;;4992361;28;1328;-87
2021/12/21 08:32:16;;;;;;;;;;;;;;;;;;4992874;28;1310;-89
2021/12/21 08:34:41;;;;;;;;;;;;;;;;;;4992623;28;1322;-88
2021/12/21 08:37:06;;;;;;;;;;;;;;;;;;4993946;28;1063;-88
2021/12/21 08:39:38;;;;;;;;;;;;;;;;;;4992189;28;1919;-88
2021/12/21 08:42:03;;;;;;;;;;;;;;;;;;4992741;28;1314;-89
2021/12/21 08:44:29;;;;;;;;;;;;;;;;;;4994112;28;917;-89
2021/12/21 08:46:58;;;;;;;;;;;;;;;;;;4994002;28;751;-89
2021/12/21 08:49:23;;;;;;;;;;;;;;;;;;4993568;28;1275;-87
2021/12/21 08:51:48;;;;;;;;;;;;;;;;;;4994491;28;1378;-88
2021/12/21 08:54:13;;;;;;;;;;;;;;;;;;4994756;28;1016;-87
2021/12/21 08:56:38;;;;;;;;;;;;;;;;;;4992508;28;1245;-88
2021/12/21 08:59:03;;;;;;;;;;;;;;;;;;4992058;28;1961;-88
2021/12/21 09:01:28;;;;;;;;;;;;;;;;;;4992469;28;1230;-88
2021/12/21 09:03:54;;;;;;;;;;;;;;;;;;4993642;28;983;-88
2021/12/21 09:06:19;;;;;;;;;;;;;;;;;;4992550;28;1235;-89
2021/12/21 09:08:44;;;;;;;;;;;;;;;;;;4993359;28;886;-88
2021/12/21 09:11:09;;;;;;;;;;;;;;;;;;4992445;28;1211;-88
2021/12/21 09:13:34;;;;;;;;;;;;;;;;;;4992307;28;1224;-88
2021/12/21 09:15:59;;;;;;;;;;;;;;;;;;4995724;28;806;-88
2021/12/21 09:18:24;;;;;;;;;;;;;;;;;;4996012;28;1371;-88
2021/12/21 09:20:49;;;;;;;;;;;;;;;;;;4995948;28;1902;-89
2021/12/21 09:23:14;;;;;;;;;;;;;;;;;;4997295;28;996;-88
2021/12/21 09:25:39;;;;;;;;;;;;;;;;;;4995881;28;1215;-86
2021/12/21 09:28:04;;;;;;;;;;;;;;;;;;4996886;28;1086;-86
2021/12/21 09:30:29;;;;;;;;;;;;;;;;;;4997019;28;1201;-86
2021/12/21 09:32:54;;;;;;;;;;;;;;;;;;4995713;28;1273;-86
2021/12/21 09:35:19;;;;;;;;;;;;;;;;;;4997014;28;1099;-85
2021/12/21 09:37:45;;;;;;;;;;;;;;;;;;4996883;28;1011;-86
2021/12/21 09:40:10;;;;;;;;;;;;;;;;;;4995481;28;1887;-85
2021/12/21 09:42:35;;;;;;;;;;;;;;;;;;4995415;28;1227;-86
2021/12/21 09:45:00;;;;;;;;;;;;;;;;;;4995624;28;1397;-85
2021/12/21 09:47:26;;;;;;;;;;;;;;;;;;5004692;28;1578;-86
2021/12/21 09:49:51;;;;;;;;;;;;;;;;;;5014962;28;1231;-87
2021/12/21 09:52:16;;;;;;;;;;;;;;;;;;5016309;28;996;-87
2021/12/21 09:54:41;;;;;;;;;;;;;;;;;;5014594;28;1219;-87
2021/12/21 09:57:07;;;;;;;;;;;;;;;;;;5031334;28;1398;-85
2021/12/21 09:59:32;;;;;;;;;;;;;;;;;;5031319;28;1886;-87
2021/12/21 10:01:57;;;;;;;;;;;;;;;;;;5031118;28;1960;-87
2021/12/21 10:04:22;;;;;;;;;;;;;;;;;;5009020;28;1338;-87
2021/12/21 10:06:48;;;;;;;;;;;;;;;;;;5029006;28;1223;-87
2021/12/21 10:09:14;;;;;;;;;;;;;;;;;;5014496;28;1262;-87
2021/12/21 10:11:39;;;;;;;;;;;;;;;;;;5016198;28;813;-87
2021/12/21 10:14:04;;;;;;;;;;;;;;;;;;5014707;28;1293;-87
2021/12/21 10:16:29;;;;;;;;;;;;;;;;;;5015998;28;1047;-88
2021/12/21 10:18:54;;;;;;;;;;;;;;;;;;5015885;28;987;-86
2021/12/21 10:21:19;;;;;;;;;;;;;;;;;;5014713;28;1902;-87
2021/12/21 10:23:44;;;;;;;;;;;;;;;;;;5015132;28;1262;-88
2021/12/21 10:26:12;;;;;;;;;;;;;;;;;;5015318;28;1358;-89
2021/12/21 10:28:37;;;;;;;;;;;;;;;;;;5018754;28;1456;-88
2021/12/21 10:31:02;;;;;;;;;;;;;;;;;;5021764;28;1180;-90
2021/12/21 10:33:27;;;;;;;;;;;;;;;;;;5024016;28;1298;-89
2021/12/21 10:35:52;;;;;;;;;;;;;;;;;;5027804;28;1178;-89
2021/12/21 10:38:17;;;;;;;;;;;;;;;;;;5023591;28;1280;-87
2021/12/21 10:40:44;;;;;;;;;;;;;;;;;;5015266;28;1906;-89
2021/12/21 10:43:09;;;;;;;;;;;;;;;;;;5014100;28;1239;-87
2021/12/21 10:45:34;;;;;;;;;;;;;;;;;;5013921;28;1236;-89
2021/12/21 10:48:00;;;;;;;;;;;;;;;;;;5014107;28;1231;-87
2021/12/21 10:50:25;;;;;;;;;;;;;;;;;;5014020;28;1207;-88
2021/12/21 10:52:51;;;;;;;;;;;;;;;;;;5015528;28;1071;-88
2021/12/21 10:55:16;;;;;;;;;;;;;;;;;;5015149;28;884;-87
2021/12/21 10:57:41;;;;;;;;;;;;;;;;;;5015053;28;957;-87
2021/12/21 11:00:06;;;;;;;;;;;;;;;;;;5013183;28;1960;-88
2021/12/21 11:02:33;;;;;;;;;;;;;;;;;;5013527;28;1306;-87
2021/12/21 11:04:58;;;;;;;;;;;;;;;;;;5013537;28;1298;-87
2021/12/21 11:09:51;;;;;;;;;;;;;;;;;;5014273;28;1272;-87
2021/12/21 11:12:16;;;;;;;;;;;;;;;;;;5014565;28;1012;-88
2021/12/21 11:14:41;;;;;;;;;;;;;;;;;;5013573;28;1222;-86
2021/12/21 11:17:06;;;;;;;;;;;;;;;;;;5014641;28;984;-89
2021/12/21 11:19:32;;;;;;;;;;;;;;;;;;5016557;28;1898;-90
2021/12/21 11:21:57;;;;;;;;;;;;;;;;;;5015589;28;1127;-87
2021/12/21 11:24:22;;;;;;;;;;;;;;;;;;5014401;28;944;-88
2021/12/21 11:26:47;;;;;;;;;;;;;;;;;;5013101;28;1189;-87
2021/12/21 11:29:13;;;;;;;;;;;;;;;;;;5014136;28;1197;-88
2021/12/21 11:31:38;;;;;;;;;;;;;;;;;;5013110;28;1378;-88
2021/12/21 11:34:04;;;;;;;;;;;;;;;;;;5013200;28;1298;-88
2021/12/21 11:39:14;;;;;;;;;;;;;;;;;;5013699;28;1891;-86
2021/12/21 11:41:39;;;;;;;;;;;;;;;;;;5012775;28;1279;-88
2021/12/21 11:44:04;;;;;;;;;;;;;;;;;;5012922;28;1244;-87
2021/12/21 11:46:29;;;;;;;;;;;;;;;;;;5014221;28;999;-87
2021/12/21 11:48:54;;;;;;;;;;;;;;;;;;5012546;28;1180;-88
2021/12/21 11:51:20;;;;;;;;;;;;;;;;;;5014520;28;1331;-87
2021/12/21 11:53:45;;;;;;;;;;;;;;;;;;5012826;28;1169;-88
2021/12/21 11:56:10;;;;;;;;;;;;;;;;;;5014112;28;872;-88
2021/12/21 11:58:35;;;;;;;;;;;;;;;;;;5012463;28;1490;-88
2021/12/21 12:01:00;;;;;;;;;;;;;;;;;;5013876;28;1942;-87
2021/12/21 12:03:25;;;;;;;;;;;;;;;;;;5014013;28;864;-87
2021/12/21 12:05:50;;;;;;;;;;;;;;;;;;5012772;28;1248;-88
2021/12/21 12:08:15;;;;;;;;;;;;;;;;;;5013909;28;1110;-86
2021/12/21 12:10:41;;;;;;;;;;;;;;;;;;5012340;28;1212;-88
2021/12/21 12:13:06;;;;;;;;;;;;;;;;;;5012489;28;1312;-87
2021/12/21 12:15:31;;;;;;;;;;;;;;;;;;5012569;28;1175;-88
2021/12/21 12:17:56;;;;;;;;;;;;;;;;;;5012642;28;1278;-87
2021/12/21 12:20:21;;;;;;;;;;;;;;;;;;5013336;28;1961;-87
2021/12/21 12:22:46;;;;;;;;;;;;;;;;;;5012529;28;1218;-86
2021/12/21 12:25:11;;;;;;;;;;;;;;;;;;5012595;28;1148;-88
2021/12/21 12:27:36;;;;;;;;;;;;;;;;;;5014060;28;1015;-87
2021/12/21 12:30:01;;;;;;;;;;;;;;;;;;5012552;28;1167;-88
2021/12/21 12:32:26;;;;;;;;;;;;;;;;;;5012675;28;1241;-86
2021/12/21 12:34:51;;;;;;;;;;;;;;;;;;5013849;28;984;-88
2021/12/21 12:37:17;;;;;;;;;;;;;;;;;;5014207;28;1058;-88
2021/12/21 12:39:42;;;;;;;;;;;;;;;;;;5012972;28;1894;-87
2021/12/21 12:42:08;;;;;;;;;;;;;;;;;;5013773;28;1039;-87
2021/12/21 12:44:33;;;;;;;;;;;;;;;;;;5012888;28;1196;-88
2021/12/21 12:46:58;;;;;;;;;;;;;;;;;;5012493;28;1301;-87
2021/12/21 12:49:23;;;;;;;;;;;;;;;;;;5012243;28;1353;-87
2021/12/21 12:51:48;;;;;;;;;;;;;;;;;;5016007;28;1285;-87
2021/12/21 12:54:14;;;;;;;;;;;;;;;;;;5016086;28;1215;-87
2021/12/21 12:56:39;;;;;;;;;;;;;;;;;;5016122;28;1303;-86
2021/12/21 12:59:04;;;;;;;;;;;;;;;;;;5015920;28;1293;-86
2021/12/21 13:01:29;;;;;;;;;;;;;;;;;;5015798;28;1886;-86
2021/12/21 13:03:54;;;;;;;;;;;;;;;;;;5016016;28;1368;-88
2021/12/21 13:06:19;;;;;;;;;;;;;;;;;;5015985;28;1239;-87
2021/12/21 13:08:44;;;;;;;;;;;;;;;;;;5015729;28;1184;-86
2021/12/21 13:11:09;;;;;;;;;;;;;;;;;;5015678;28;1345;-86
2021/12/21 13:13:34;;;;;;;;;;;;;;;;;;5015773;28;1196;-87
2021/12/21 13:15:59;;;;;;;;;;;;;;;;;;5015843;28;1251;-87
2021/12/21 13:18:24;;;;;;;;;;;;;;;;;;5017836;28;1012;-87
2021/12/21 13:20:50;;;;;;;;;;;;;;;;;;5015394;28;1918;-86
2021/12/21 13:23:15;;;;;;;;;;;;;;;;;;5015417;28;1236;-87
2021/12/21 13:25:40;;;;;;;;;;;;;;;;;;5015421;28;1296;-87
2021/12/21 13:28:05;;;;;;;;;;;;;;;;;;5015361;28;1231;-88
2021/12/21 13:30:30;;;;;;;;;;;;;;;;;;5015251;28;1359;-87
2021/12/21 13:32:55;;;;;;;;;;;;;;;;;;5015338;28;1360;-88
2021/12/21 13:35:21;;;;;;;;;;;;;;;;;;5016585;28;1071;-87
2021/12/21 13:37:46;;;;;;;;;;;;;;;;;;5015537;28;1244;-87
2021/12/21 13:40:11;;;;;;;;;;;;;;;;;;5014970;28;1898;-87
2021/12/21 13:42:36;;;;;;;;;;;;;;;;;;5015498;28;1167;-88
2021/12/21 13:45:01;;;;;;;;;;;;;;;;;;5015365;28;1191;-88
2021/12/21 13:47:27;;;;;;;;;;;;;;;;;;5015041;28;1219;-87
2021/12/21 13:49:52;;;;;;;;;;;;;;;;;;5012400;28;1309;-88
2021/12/21 13:52:17;;;;;;;;;;;;;;;;;;5031577;28;1203;-87
2021/12/21 13:54:42;;;;;;;;;;;;;;;;;;5031914;28;1290;-88
2021/12/21 13:57:07;;;;;;;;;;;;;;;;;;5032381;28;1540;-88
2021/12/21 13:59:32;;;;;;;;;;;;;;;;;;5032615;28;1863;-87
2021/12/21 14:02:02;;;;;;;;;;;;;;;;;;5031880;28;1504;-87
2021/12/21 14:04:37;;;;;;;;;;;;;;;;;;5016053;28;1406;-87
2021/12/21 14:07:02;;;;;;;;;;;;;;;;;;5017261;28;781;-88
2021/12/21 14:09:27;;;;;;;;;;;;;;;;;;5015263;28;1212;-88
2021/12/21 14:11:52;;;;;;;;;;;;;;;;;;5015085;28;1145;-89
2021/12/21 14:14:17;;;;;;;;;;;;;;;;;;5014332;28;1656;-88
2021/12/21 14:16:42;;;;;;;;;;;;;;;;;;5017227;28;1451;-88
2021/12/21 14:19:07;;;;;;;;;;;;;;;;;;5014117;28;1534;-87
2021/12/21 14:21:36;;;;;;;;;;;;;;;;;;5031275;28;1957;-87
2021/12/21 14:24:01;;;;;;;;;;;;;;;;;;5015779;28;1281;-86
2021/12/21 14:26:26;;;;;;;;;;;;;;;;;;5015822;28;1058;-87
2021/12/21 14:28:51;;;;;;;;;;;;;;;;;;5015439;28;1031;-87
2021/12/21 14:31:16;;;;;;;;;;;;;;;;;;5015825;28;1251;-87
2021/12/21 14:33:48;;;;;;;;;;;;;;;;;;5014994;28;1611;-87
2021/12/21 14:36:15;;;;;;;;;;;;;;;;;;5014890;28;1618;-85
2021/12/21 14:38:40;;;;;;;;;;;;;;;;;;5015129;28;1681;-86
2021/12/21 14:41:05;;;;;;;;;;;;;;;;;;5015215;28;1959;-88
2021/12/21 14:43:31;;;;;;;;;;;;;;;;;;5015630;28;1339;-86
2021/12/21 14:45:56;;;;;;;;;;;;;;;;;;5017402;28;856;-86
2021/12/21 14:48:21;;;;;;;;;;;;;;;;;;5015114;28;1200;-88
2021/12/21 14:50:49;;;;;;;;;;;;;;;;;;5016365;28;1281;-86
2021/12/21 14:53:14;;;;;;;;;;;;;;;;;;5018000;28;857;-85
2021/12/21 14:55:39;;;;;;;;;;;;;;;;;;5016261;28;1067;-86
2021/12/21 14:58:05;;;;;;;;;;;;;;;;;;5014313;28;1401;-83
2021/12/21 15:00:30;;;;;;;;;;;;;;;;;;5015164;28;1961;-86
2021/12/21 15:02:55;;;;;;;;;;;;;;;;;;5018899;28;1538;-88
2021/12/21 15:05:21;;;;;;;;;;;;;;;;;;5011304;28;1286;-86
2021/12/21 15:07:46;;;;;;;;;;;;;;;;;;4995670;28;917;-87
2021/12/21 15:10:11;;;;;;;;;;;;;;;;;;4995080;28;1209;-85
2021/12/21 15:12:36;;;;;;;;;;;;;;;;;;5026944;28;1852;-86
2021/12/21 15:15:01;;;;;;;;;;;;;;;;;;5013819;28;1282;-87
2021/12/21 15:17:26;;;;;;;;;;;;;;;;;;5016236;28;999;-86
2021/12/21 15:19:51;;;;;;;;;;;;;;;;;;5014850;28;1967;-86
2021/12/21 15:22:16;;;;;;;;;;;;;;;;;;5013832;28;1479;-87
2021/12/21 15:24:41;;;;;;;;;;;;;;;;;;5013821;28;1151;-88
2021/12/21 15:27:06;;;;;;;;;;;;;;;;;;5015225;28;1751;-87
2021/12/21 15:29:31;;;;;;;;;;;;;;;;;;5013324;28;1331;-87
2021/12/21 15:31:56;;;;;;;;;;;;;;;;;;5013130;28;1857;-88
2021/12/21 15:34:21;;;;;;;;;;;;;;;;;;5013375;28;1204;-88
2021/12/21 15:36:46;;;;;;;;;;;;;;;;;;5013376;28;1447;-88
2021/12/21 15:39:16;;;;;;;;;;;;;;;;;;5014163;28;1197;-88
2021/12/21 15:41:42;;;;;;;;;;;;;;;;;;5014707;28;1890;-87
2021/12/21 15:44:07;;;;;;;;;;;;;;;;;;5010634;28;1729;-88
2021/12/21 15:46:32;;;;;;;;;;;;;;;;;;5010057;28;1808;-89
2021/12/21 15:48:57;;;;;;;;;;;;;;;;;;5009801;28;1329;-88
2021/12/21 15:51:23;;;;;;;;;;;;;;;;;;5010036;28;1443;-89
2021/12/21 15:53:51;;;;;;;;;;;;;;;;;;5009809;28;1517;-88
2021/12/21 15:56:16;;;;;;;;;;;;;;;;;;4994962;28;921;-86
2021/12/21 15:58:41;;;;;;;;;;;;;;;;;;5010226;28;1339;-88
2021/12/21 16:01:06;;;;;;;;;;;;;;;;;;5020419;28;1910;-89
2021/12/21 16:03:33;;;;;;;;;;;;;;;;;;5013301;28;1236;-88
2021/12/21 16:05:58;;;;;;;;;;;;;;;;;;5012304;28;1302;-87
2021/12/21 16:08:23;;;;;;;;;;;;;;;;;;5012038;28;1184;-87
2021/12/21 16:10:49;;;;;;;;;;;;;;;;;;5013618;28;1177;-87
2021/12/21 16:13:15;;;;;;;;;;;;;;;;;;5013091;28;1384;-90
2021/12/21 16:15:40;;;;;;;;;;;;;;;;;;5012565;28;1301;-89
2021/12/21 16:18:06;;;;;;;;;;;;;;;;;;5012678;28;1207;-87
2021/12/21 16:20:31;;;;;;;;;;;;;;;;;;5012606;28;1975;-86
2021/12/21 16:22:56;;;;;;;;;;;;;;;;;;5012886;28;1192;-88
2021/12/21 16:25:21;;;;;;;;;;;;;;;;;;5013763;28;1175;-87
2021/12/21 16:27:47;;;;;;;;;;;;;;;;;;5012473;28;1185;-87
2021/12/21 16:30:12;;;;;;;;;;;;;;;;;;5011914;28;1215;-88
2021/12/21 16:32:37;;;;;;;;;;;;;;;;;;5012898;28;1705;-89
2021/12/21 16:35:02;;;;;;;;;;;;;;;;;;5012714;28;1205;-89
2021/12/21 16:37:27;;;;;;;;;;;;;;;;;;5012659;28;1299;-89
2021/12/21 16:39:52;;;;;;;;;;;;;;;;;;5013094;28;1894;-89
2021/12/21 16:42:17;;;;;;;;;;;;;;;;;;5015123;28;1315;-88
2021/12/21 16:44:44;;;;;;;;;;;;;;;;;;5017960;28;1306;-87
2021/12/21 16:47:09;;;;;;;;;;;;;;;;;;5015780;28;1368;-89
2021/12/21 16:49:34;;;;;;;;;;;;;;;;;;5013054;28;1610;-88
2021/12/21 16:51:59;;;;;;;;;;;;;;;;;;5013205;28;1342;-89
2021/12/21 16:54:24;;;;;;;;;;;;;;;;;;5014189;28;1230;-89
2021/12/21 16:56:49;;;;;;;;;;;;;;;;;;5021609;28;1036;-88
2021/12/21 16:59:14;;;;;;;;;;;;;;;;;;5023215;28;1173;-87
2021/12/21 17:01:39;;;;;;;;;;;;;;;;;;5015387;28;1867;-87
2021/12/21 17:04:05;;;;;;;;;;;;;;;;;;5013011;28;1439;-86
2021/12/21 17:06:30;;;;;;;;;;;;;;;;;;5013333;28;814;-85
2021/12/21 17:08:57;;;;;;;;;;;;;;;;;;5012609;28;1248;-87
2021/12/21 17:11:22;;;;;;;;;;;;;;;;;;5013538;28;1323;-88
2021/12/21 17:13:47;;;;;;;;;;;;;;;;;;5012968;28;1343;-87
2021/12/21 17:16:12;;;;;;;;;;;;;;;;;;5013658;28;1007;-87
2021/12/21 17:18:37;;;;;;;;;;;;;;;;;;5013224;28;861;-86
2021/12/21 17:21:02;;;;;;;;;;;;;;;;;;5012383;28;1980;-85
2021/12/21 17:23:27;;;;;;;;;;;;;;;;;;5013032;28;1008;-85
2021/12/21 17:25:52;;;;;;;;;;;;;;;;;;5012916;28;995;-86
2021/12/21 17:28:17;;;;;;;;;;;;;;;;;;5011843;28;1216;-87
2021/12/21 17:30:42;;;;;;;;;;;;;;;;;;5013087;28;1275;-86
2021/12/21 17:33:12;;;;;;;;;;;;;;;;;;5011865;28;1232;-87
2021/12/21 17:35:37;;;;;;;;;;;;;;;;;;5012020;28;1366;-86
2021/12/21 17:38:02;;;;;;;;;;;;;;;;;;5015412;28;1219;-85
2021/12/21 17:40:27;;;;;;;;;;;;;;;;;;5016058;28;1959;-87
2021/12/21 17:42:52;;;;;;;;;;;;;;;;;;5015268;28;1209;-87
2021/12/21 17:45:17;;;;;;;;;;;;;;;;;;5015187;28;1235;-86
2021/12/21 17:47:42;;;;;;;;;;;;;;;;;;5016590;28;1067;-89
2021/12/21 17:50:07;;;;;;;;;;;;;;;;;;5014588;28;1634;-90
2021/12/21 17:52:32;;;;;;;;;;;;;;;;;;5015384;28;1358;-88